sensor_id;sensor_type;location;lat;lon;timestamp;P1;durP1;ratioP1;P2;durP2;ratioP2
66669;SDS011;53568;52.164;4.472;2022-08-07T00:01:02;3.23;;;3.23;;
66669;SDS011;53568;52.164;4.472;2022-08-07T00:03:29;3.26;;;3.26;;
66669;SDS011;53568;52.164;4.472;2022-08-07T00:05:54;3.27;;;3.27;;
66669;SDS011;53568;52.164;4.472;2022-08-07T00:08:20;3.32;;;3.32;;
66669;SDS011;53568;52.164;4.472;2022-08-07T00:10:50;3.37;;;3.37;;
66669;SDS011;53568;52.164;4.472;2022-08-07T00:13:16;3.59;;;3.59;;
66669;SDS011;53568;52.164;4.472;2022-08-07T00:15:43;3.46;;;3.46;;
66669;SDS011;53568;52.164;4.472;2022-08-07T00:18:09;3.42;;;3.42;;
66669;SDS011;53568;52.164;4.472;2022-08-07T00:20:36;3.36;;;3.36;;
66669;SDS011;53568;52.164;4.472;2022-08-07T00:23:03;3.21;;;3.21;;
66669;SDS011;53568;52.164;4.472;2022-08-07T00:25:33;2.87;;;2.87;;
66669;SDS011;53568;52.164;4.472;2022-08-07T00:28:00;3.21;;;3.21;;
66669;SDS011;53568;52.164;4.472;2022-08-07T00:30:25;3.40;;;3.40;;
66669;SDS011;53568;52.164;4.472;2022-08-07T00:32:51;3.55;;;3.55;;
66669;SDS011;53568;52.164;4.472;2022-08-07T00:35:18;3.49;;;3.49;;
66669;SDS011;53568;52.164;4.472;2022-08-07T00:37:45;3.58;;;3.58;;
66669;SDS011;53568;52.164;4.472;2022-08-07T00:40:11;3.46;;;3.46;;
66669;SDS011;53568;52.164;4.472;2022-08-07T00:42:38;3.43;;;3.43;;
66669;SDS011;53568;52.164;4.472;2022-08-07T00:45:06;3.69;;;3.69;;
66669;SDS011;53568;52.164;4.472;2022-08-07T00:47:34;3.75;;;3.75;;
66669;SDS011;53568;52.164;4.472;2022-08-07T00:50:00;3.74;;;3.74;;
66669;SDS011;53568;52.164;4.472;2022-08-07T00:52:25;3.98;;;3.98;;
66669;SDS011;53568;52.164;4.472;2022-08-07T00:54:51;3.89;;;3.89;;
66669;SDS011;53568;52.164;4.472;2022-08-07T00:57:17;3.99;;;3.99;;
66669;SDS011;53568;52.164;4.472;2022-08-07T00:59:42;3.92;;;3.92;;
66669;SDS011;53568;52.164;4.472;2022-08-07T01:02:09;3.84;;;3.84;;
66669;SDS011;53568;52.164;4.472;2022-08-07T01:04:36;4.24;;;4.24;;
66669;SDS011;53568;52.164;4.472;2022-08-07T01:07:02;4.10;;;4.10;;
66669;SDS011;53568;52.164;4.472;2022-08-07T01:09:29;3.84;;;3.84;;
66669;SDS011;53568;52.164;4.472;2022-08-07T01:11:55;3.61;;;3.61;;
66669;SDS011;53568;52.164;4.472;2022-08-07T01:14:21;3.83;;;3.83;;
66669;SDS011;53568;52.164;4.472;2022-08-07T01:16:49;4.03;;;4.03;;
66669;SDS011;53568;52.164;4.472;2022-08-07T01:19:16;3.92;;;3.92;;
66669;SDS011;53568;52.164;4.472;2022-08-07T01:21:44;3.98;;;3.98;;
66669;SDS011;53568;52.164;4.472;2022-08-07T01:24:11;4.45;;;4.45;;
66669;SDS011;53568;52.164;4.472;2022-08-07T01:26:38;4.33;;;4.33;;
66669;SDS011;53568;52.164;4.472;2022-08-07T01:29:04;4.66;;;4.66;;
66669;SDS011;53568;52.164;4.472;2022-08-07T01:31:30;4.52;;;4.52;;
66669;SDS011;53568;52.164;4.472;2022-08-07T01:33:56;4.53;;;4.53;;
66669;SDS011;53568;52.164;4.472;2022-08-07T01:36:27;4.54;;;4.54;;
66669;SDS011;53568;52.164;4.472;2022-08-07T01:38:54;5.12;;;5.12;;
66669;SDS011;53568;52.164;4.472;2022-08-07T01:41:21;5.14;;;5.14;;
66669;SDS011;53568;52.164;4.472;2022-08-07T01:43:48;5.25;;;5.25;;
66669;SDS011;53568;52.164;4.472;2022-08-07T01:46:15;5.68;;;5.68;;
66669;SDS011;53568;52.164;4.472;2022-08-07T01:48:42;5.87;;;5.87;;
66669;SDS011;53568;52.164;4.472;2022-08-07T01:51:10;5.55;;;5.55;;
66669;SDS011;53568;52.164;4.472;2022-08-07T01:53:38;6.12;;;6.12;;
66669;SDS011;53568;52.164;4.472;2022-08-07T01:56:12;5.87;;;5.87;;
66669;SDS011;53568;52.164;4.472;2022-08-07T01:58:49;6.25;;;6.25;;
66669;SDS011;53568;52.164;4.472;2022-08-07T02:01:26;5.75;;;5.73;;
66669;SDS011;53568;52.164;4.472;2022-08-07T02:04:02;5.09;;;5.08;;
66669;SDS011;53568;52.164;4.472;2022-08-07T02:06:56;5.38;;;5.38;;
66669;SDS011;53568;52.164;4.472;2022-08-07T02:09:25;5.35;;;5.35;;
66669;SDS011;53568;52.164;4.472;2022-08-07T02:11:55;5.62;;;5.62;;
66669;SDS011;53568;52.164;4.472;2022-08-07T02:14:23;5.64;;;5.64;;
66669;SDS011;53568;52.164;4.472;2022-08-07T02:16:52;5.45;;;5.43;;
66669;SDS011;53568;52.164;4.472;2022-08-07T02:19:20;5.50;;;5.50;;
66669;SDS011;53568;52.164;4.472;2022-08-07T02:21:48;5.21;;;5.21;;
66669;SDS011;53568;52.164;4.472;2022-08-07T02:24:16;5.39;;;5.39;;
66669;SDS011;53568;52.164;4.472;2022-08-07T02:26:43;5.67;;;5.67;;
66669;SDS011;53568;52.164;4.472;2022-08-07T02:29:11;5.77;;;5.77;;
66669;SDS011;53568;52.164;4.472;2022-08-07T02:31:37;5.47;;;5.47;;
66669;SDS011;53568;52.164;4.472;2022-08-07T02:34:04;5.71;;;5.71;;
66669;SDS011;53568;52.164;4.472;2022-08-07T02:36:32;5.38;;;5.38;;
66669;SDS011;53568;52.164;4.472;2022-08-07T02:38:59;5.72;;;5.72;;
66669;SDS011;53568;52.164;4.472;2022-08-07T02:41:28;5.72;;;5.72;;
66669;SDS011;53568;52.164;4.472;2022-08-07T02:43:55;5.83;;;5.83;;
66669;SDS011;53568;52.164;4.472;2022-08-07T02:46:24;5.76;;;5.76;;
66669;SDS011;53568;52.164;4.472;2022-08-07T02:48:54;5.47;;;5.47;;
66669;SDS011;53568;52.164;4.472;2022-08-07T02:51:20;5.21;;;5.21;;
66669;SDS011;53568;52.164;4.472;2022-08-07T02:53:51;5.34;;;5.34;;
66669;SDS011;53568;52.164;4.472;2022-08-07T02:56:21;5.49;;;5.49;;
66669;SDS011;53568;52.164;4.472;2022-08-07T02:58:54;5.36;;;5.35;;
66669;SDS011;53568;52.164;4.472;2022-08-07T03:01:26;5.62;;;5.62;;
66669;SDS011;53568;52.164;4.472;2022-08-07T03:03:54;5.65;;;5.65;;
66669;SDS011;53568;52.164;4.472;2022-08-07T03:06:22;5.80;;;5.80;;
66669;SDS011;53568;52.164;4.472;2022-08-07T03:08:51;5.61;;;5.61;;
66669;SDS011;53568;52.164;4.472;2022-08-07T03:11:18;5.49;;;5.49;;
66669;SDS011;53568;52.164;4.472;2022-08-07T03:13:44;5.29;;;5.29;;
66669;SDS011;53568;52.164;4.472;2022-08-07T03:16:10;5.21;;;5.21;;
66669;SDS011;53568;52.164;4.472;2022-08-07T03:18:36;5.24;;;5.24;;
66669;SDS011;53568;52.164;4.472;2022-08-07T03:21:03;5.15;;;5.15;;
66669;SDS011;53568;52.164;4.472;2022-08-07T03:23:31;5.35;;;5.35;;
66669;SDS011;53568;52.164;4.472;2022-08-07T03:25:59;5.39;;;5.39;;
66669;SDS011;53568;52.164;4.472;2022-08-07T03:28:27;5.23;;;5.23;;
66669;SDS011;53568;52.164;4.472;2022-08-07T03:30:55;4.92;;;4.92;;
66669;SDS011;53568;52.164;4.472;2022-08-07T03:33:41;5.13;;;5.13;;
66669;SDS011;53568;52.164;4.472;2022-08-07T03:36:10;5.11;;;5.11;;
66669;SDS011;53568;52.164;4.472;2022-08-07T03:38:38;5.07;;;5.07;;
66669;SDS011;53568;52.164;4.472;2022-08-07T03:41:07;4.93;;;4.93;;
66669;SDS011;53568;52.164;4.472;2022-08-07T03:43:34;4.89;;;4.89;;
66669;SDS011;53568;52.164;4.472;2022-08-07T03:46:02;5.00;;;5.00;;
66669;SDS011;53568;52.164;4.472;2022-08-07T03:48:31;5.71;;;5.71;;
66669;SDS011;53568;52.164;4.472;2022-08-07T03:50:58;5.55;;;5.55;;
66669;SDS011;53568;52.164;4.472;2022-08-07T03:53:26;5.41;;;5.41;;
66669;SDS011;53568;52.164;4.472;2022-08-07T03:55:52;5.53;;;5.53;;
66669;SDS011;53568;52.164;4.472;2022-08-07T03:58:20;5.60;;;5.60;;
66669;SDS011;53568;52.164;4.472;2022-08-07T04:00:47;5.67;;;5.67;;
66669;SDS011;53568;52.164;4.472;2022-08-07T04:03:17;6.20;;;6.20;;
66669;SDS011;53568;52.164;4.472;2022-08-07T04:05:43;5.86;;;5.86;;
66669;SDS011;53568;52.164;4.472;2022-08-07T04:08:10;6.16;;;6.16;;
66669;SDS011;53568;52.164;4.472;2022-08-07T04:10:38;6.08;;;6.08;;
66669;SDS011;53568;52.164;4.472;2022-08-07T04:13:05;5.60;;;5.60;;
66669;SDS011;53568;52.164;4.472;2022-08-07T04:15:32;6.08;;;6.08;;
66669;SDS011;53568;52.164;4.472;2022-08-07T04:17:58;6.17;;;6.17;;
66669;SDS011;53568;52.164;4.472;2022-08-07T04:20:26;6.29;;;6.29;;
66669;SDS011;53568;52.164;4.472;2022-08-07T04:22:52;6.01;;;6.01;;
66669;SDS011;53568;52.164;4.472;2022-08-07T04:25:18;6.11;;;6.11;;
66669;SDS011;53568;52.164;4.472;2022-08-07T04:27:46;6.13;;;6.13;;
66669;SDS011;53568;52.164;4.472;2022-08-07T04:30:12;6.17;;;6.17;;
66669;SDS011;53568;52.164;4.472;2022-08-07T04:32:39;5.94;;;5.94;;
66669;SDS011;53568;52.164;4.472;2022-08-07T04:35:06;6.40;;;6.40;;
66669;SDS011;53568;52.164;4.472;2022-08-07T04:37:32;6.72;;;6.72;;
66669;SDS011;53568;52.164;4.472;2022-08-07T04:39:59;6.27;;;6.27;;
66669;SDS011;53568;52.164;4.472;2022-08-07T04:42:25;6.12;;;6.12;;
66669;SDS011;53568;52.164;4.472;2022-08-07T04:44:55;6.40;;;6.40;;
66669;SDS011;53568;52.164;4.472;2022-08-07T04:47:27;6.01;;;6.01;;
66669;SDS011;53568;52.164;4.472;2022-08-07T04:50:01;5.88;;;5.88;;
66669;SDS011;53568;52.164;4.472;2022-08-07T04:52:42;6.21;;;6.21;;
66669;SDS011;53568;52.164;4.472;2022-08-07T05:01:14;5.82;;;5.82;;
66669;SDS011;53568;52.164;4.472;2022-08-07T05:04:08;5.63;;;5.63;;
66669;SDS011;53568;52.164;4.472;2022-08-07T05:06:45;5.57;;;5.57;;
66669;SDS011;53568;52.164;4.472;2022-08-07T05:09:28;5.82;;;5.82;;
66669;SDS011;53568;52.164;4.472;2022-08-07T05:12:03;5.72;;;5.72;;
66669;SDS011;53568;52.164;4.472;2022-08-07T05:14:37;6.13;;;6.13;;
66669;SDS011;53568;52.164;4.472;2022-08-07T05:17:07;6.14;;;6.14;;
66669;SDS011;53568;52.164;4.472;2022-08-07T05:19:42;6.47;;;6.47;;
66669;SDS011;53568;52.164;4.472;2022-08-07T05:22:11;6.07;;;6.07;;
66669;SDS011;53568;52.164;4.472;2022-08-07T05:24:40;6.31;;;6.31;;
66669;SDS011;53568;52.164;4.472;2022-08-07T05:27:08;6.36;;;6.36;;
66669;SDS011;53568;52.164;4.472;2022-08-07T05:29:39;6.77;;;6.77;;
66669;SDS011;53568;52.164;4.472;2022-08-07T05:32:07;6.59;;;6.59;;
66669;SDS011;53568;52.164;4.472;2022-08-07T05:34:35;7.41;;;7.41;;
66669;SDS011;53568;52.164;4.472;2022-08-07T05:37:04;7.23;;;7.23;;
66669;SDS011;53568;52.164;4.472;2022-08-07T05:39:31;8.34;;;8.34;;
66669;SDS011;53568;52.164;4.472;2022-08-07T05:42:00;8.28;;;8.28;;
66669;SDS011;53568;52.164;4.472;2022-08-07T05:44:28;7.16;;;7.16;;
66669;SDS011;53568;52.164;4.472;2022-08-07T05:46:55;6.87;;;6.87;;
66669;SDS011;53568;52.164;4.472;2022-08-07T05:49:21;6.71;;;6.71;;
66669;SDS011;53568;52.164;4.472;2022-08-07T05:51:47;6.25;;;6.25;;
66669;SDS011;53568;52.164;4.472;2022-08-07T05:54:15;6.23;;;6.23;;
66669;SDS011;53568;52.164;4.472;2022-08-07T05:56:41;6.11;;;6.11;;
66669;SDS011;53568;52.164;4.472;2022-08-07T05:59:12;6.49;;;6.49;;
66669;SDS011;53568;52.164;4.472;2022-08-07T06:01:41;6.49;;;6.49;;
66669;SDS011;53568;52.164;4.472;2022-08-07T06:04:09;6.61;;;6.61;;
66669;SDS011;53568;52.164;4.472;2022-08-07T06:06:39;6.71;;;6.71;;
66669;SDS011;53568;52.164;4.472;2022-08-07T06:09:05;7.02;;;7.02;;
66669;SDS011;53568;52.164;4.472;2022-08-07T06:11:32;7.19;;;7.19;;
66669;SDS011;53568;52.164;4.472;2022-08-07T06:13:58;7.14;;;7.14;;
66669;SDS011;53568;52.164;4.472;2022-08-07T06:16:26;7.29;;;7.28;;
66669;SDS011;53568;52.164;4.472;2022-08-07T06:18:55;6.42;;;6.41;;
66669;SDS011;53568;52.164;4.472;2022-08-07T06:21:22;6.21;;;6.21;;
66669;SDS011;53568;52.164;4.472;2022-08-07T06:23:49;6.04;;;6.04;;
66669;SDS011;53568;52.164;4.472;2022-08-07T06:26:15;5.64;;;5.64;;
66669;SDS011;53568;52.164;4.472;2022-08-07T06:28:50;5.26;;;5.26;;
66669;SDS011;53568;52.164;4.472;2022-08-07T06:31:17;5.19;;;5.19;;
66669;SDS011;53568;52.164;4.472;2022-08-07T06:33:43;4.90;;;4.90;;
66669;SDS011;53568;52.164;4.472;2022-08-07T06:36:10;5.19;;;5.19;;
66669;SDS011;53568;52.164;4.472;2022-08-07T06:38:36;5.38;;;5.38;;
66669;SDS011;53568;52.164;4.472;2022-08-07T06:41:01;5.40;;;5.39;;
66669;SDS011;53568;52.164;4.472;2022-08-07T06:43:33;5.22;;;5.22;;
66669;SDS011;53568;52.164;4.472;2022-08-07T06:46:02;5.36;;;5.36;;
66669;SDS011;53568;52.164;4.472;2022-08-07T06:48:28;5.25;;;5.25;;
66669;SDS011;53568;52.164;4.472;2022-08-07T06:50:54;5.61;;;5.61;;
66669;SDS011;53568;52.164;4.472;2022-08-07T06:53:26;5.85;;;5.85;;
66669;SDS011;53568;52.164;4.472;2022-08-07T06:55:53;6.19;;;6.19;;
66669;SDS011;53568;52.164;4.472;2022-08-07T06:58:21;6.08;;;6.07;;
66669;SDS011;53568;52.164;4.472;2022-08-07T07:00:48;5.84;;;5.84;;
66669;SDS011;53568;52.164;4.472;2022-08-07T07:03:14;6.27;;;6.27;;
66669;SDS011;53568;52.164;4.472;2022-08-07T07:05:41;5.45;;;5.45;;
66669;SDS011;53568;52.164;4.472;2022-08-07T07:08:08;4.75;;;4.75;;
66669;SDS011;53568;52.164;4.472;2022-08-07T07:10:36;4.41;;;4.41;;
66669;SDS011;53568;52.164;4.472;2022-08-07T07:13:03;3.93;;;3.93;;
66669;SDS011;53568;52.164;4.472;2022-08-07T07:15:41;3.43;;;3.43;;
66669;SDS011;53568;52.164;4.472;2022-08-07T07:18:21;3.48;;;3.48;;
66669;SDS011;53568;52.164;4.472;2022-08-07T07:20:54;4.11;;;4.11;;
66669;SDS011;53568;52.164;4.472;2022-08-07T07:23:23;3.97;;;3.97;;
66669;SDS011;53568;52.164;4.472;2022-08-07T07:25:51;3.99;;;3.99;;
66669;SDS011;53568;52.164;4.472;2022-08-07T07:28:22;4.10;;;4.10;;
66669;SDS011;53568;52.164;4.472;2022-08-07T07:31:06;4.49;;;4.49;;
66669;SDS011;53568;52.164;4.472;2022-08-07T07:33:54;4.30;;;4.30;;
66669;SDS011;53568;52.164;4.472;2022-08-07T07:36:26;4.27;;;4.27;;
66669;SDS011;53568;52.164;4.472;2022-08-07T07:38:54;4.22;;;4.22;;
66669;SDS011;53568;52.164;4.472;2022-08-07T07:41:20;4.23;;;4.23;;
66669;SDS011;53568;52.164;4.472;2022-08-07T07:43:49;4.25;;;4.25;;
66669;SDS011;53568;52.164;4.472;2022-08-07T07:46:18;4.26;;;4.26;;
66669;SDS011;53568;52.164;4.472;2022-08-07T07:48:47;4.44;;;4.44;;
66669;SDS011;53568;52.164;4.472;2022-08-07T07:51:16;4.36;;;4.36;;
66669;SDS011;53568;52.164;4.472;2022-08-07T07:53:44;4.43;;;4.43;;
66669;SDS011;53568;52.164;4.472;2022-08-07T07:56:12;4.44;;;4.44;;
66669;SDS011;53568;52.164;4.472;2022-08-07T07:58:39;4.12;;;4.12;;
66669;SDS011;53568;52.164;4.472;2022-08-07T08:01:08;4.19;;;4.19;;
66669;SDS011;53568;52.164;4.472;2022-08-07T08:03:35;4.51;;;4.51;;
66669;SDS011;53568;52.164;4.472;2022-08-07T08:06:04;4.19;;;4.19;;
66669;SDS011;53568;52.164;4.472;2022-08-07T08:08:31;4.26;;;4.26;;
66669;SDS011;53568;52.164;4.472;2022-08-07T08:11:00;4.29;;;4.29;;
66669;SDS011;53568;52.164;4.472;2022-08-07T08:13:28;4.09;;;4.09;;
66669;SDS011;53568;52.164;4.472;2022-08-07T08:15:56;4.18;;;4.18;;
66669;SDS011;53568;52.164;4.472;2022-08-07T08:18:26;4.38;;;4.36;;
66669;SDS011;53568;52.164;4.472;2022-08-07T08:20:53;4.33;;;4.30;;
66669;SDS011;53568;52.164;4.472;2022-08-07T08:23:24;4.14;;;4.14;;
66669;SDS011;53568;52.164;4.472;2022-08-07T08:26:13;4.22;;;4.22;;
66669;SDS011;53568;52.164;4.472;2022-08-07T08:29:00;3.90;;;3.90;;
66669;SDS011;53568;52.164;4.472;2022-08-07T08:31:28;4.04;;;4.04;;
66669;SDS011;53568;52.164;4.472;2022-08-07T08:34:00;4.16;;;4.16;;
66669;SDS011;53568;52.164;4.472;2022-08-07T08:36:30;3.78;;;3.78;;
66669;SDS011;53568;52.164;4.472;2022-08-07T08:38:58;3.47;;;3.47;;
66669;SDS011;53568;52.164;4.472;2022-08-07T08:46:55;3.38;;;3.38;;
66669;SDS011;53568;52.164;4.472;2022-08-07T08:52:05;5.05;;;5.05;;
66669;SDS011;53568;52.164;4.472;2022-08-07T08:55:02;5.33;;;5.33;;
66669;SDS011;53568;52.164;4.472;2022-08-07T08:57:45;3.82;;;3.82;;
66669;SDS011;53568;52.164;4.472;2022-08-07T09:00:22;4.08;;;4.08;;
66669;SDS011;53568;52.164;4.472;2022-08-07T09:02:58;4.39;;;4.39;;
66669;SDS011;53568;52.164;4.472;2022-08-07T09:05:57;4.22;;;4.22;;
66669;SDS011;53568;52.164;4.472;2022-08-07T09:08:44;3.96;;;3.95;;
66669;SDS011;53568;52.164;4.472;2022-08-07T09:11:40;4.05;;;4.05;;
66669;SDS011;53568;52.164;4.472;2022-08-07T09:14:31;4.05;;;4.05;;
66669;SDS011;53568;52.164;4.472;2022-08-07T09:22:54;4.31;;;4.31;;
66669;SDS011;53568;52.164;4.472;2022-08-07T09:28:38;3.72;;;3.72;;
66669;SDS011;53568;52.164;4.472;2022-08-07T09:31:12;4.09;;;4.09;;
66669;SDS011;53568;52.164;4.472;2022-08-07T09:36:50;4.03;;;4.03;;
66669;SDS011;53568;52.164;4.472;2022-08-07T09:39:32;3.86;;;3.86;;
66669;SDS011;53568;52.164;4.472;2022-08-07T09:42:24;4.06;;;4.06;;
66669;SDS011;53568;52.164;4.472;2022-08-07T09:53:37;3.72;;;3.72;;
66669;SDS011;53568;52.164;4.472;2022-08-07T10:04:05;3.35;;;3.35;;
66669;SDS011;53568;52.164;4.472;2022-08-07T10:12:00;3.18;;;3.18;;
66669;SDS011;53568;52.164;4.472;2022-08-07T10:26:35;2.68;;;2.68;;
66669;SDS011;53568;52.164;4.472;2022-08-07T10:31:48;2.50;;;2.50;;
66669;SDS011;53568;52.164;4.472;2022-08-07T10:34:26;2.10;;;2.10;;
66669;SDS011;53568;52.164;4.472;2022-08-07T10:43:11;1.76;;;1.76;;
66669;SDS011;53568;52.164;4.472;2022-08-07T10:45:37;1.79;;;1.79;;
66669;SDS011;53568;52.164;4.472;2022-08-07T10:51:02;1.63;;;1.63;;
66669;SDS011;53568;52.164;4.472;2022-08-07T10:53:35;1.79;;;1.79;;
66669;SDS011;53568;52.164;4.472;2022-08-07T11:06:28;2.68;;;2.68;;
66669;SDS011;53568;52.164;4.472;2022-08-07T11:09:17;2.54;;;2.54;;
66669;SDS011;53568;52.164;4.472;2022-08-07T11:11:58;3.26;;;3.26;;
66669;SDS011;53568;52.164;4.472;2022-08-07T11:14:40;3.29;;;3.29;;
66669;SDS011;53568;52.164;4.472;2022-08-07T11:19:59;4.19;;;4.19;;
66669;SDS011;53568;52.164;4.472;2022-08-07T11:23:07;4.33;;;4.33;;
66669;SDS011;53568;52.164;4.472;2022-08-07T11:25:47;3.87;;;3.87;;
66669;SDS011;53568;52.164;4.472;2022-08-07T11:28:29;4.25;;;4.25;;
66669;SDS011;53568;52.164;4.472;2022-08-07T11:31:06;3.69;;;3.69;;
66669;SDS011;53568;52.164;4.472;2022-08-07T11:36:10;3.46;;;3.46;;
66669;SDS011;53568;52.164;4.472;2022-08-07T11:39:04;3.67;;;3.67;;
66669;SDS011;53568;52.164;4.472;2022-08-07T11:41:43;3.59;;;3.59;;
66669;SDS011;53568;52.164;4.472;2022-08-07T11:47:27;3.98;;;3.98;;
66669;SDS011;53568;52.164;4.472;2022-08-07T11:55:58;3.41;;;3.41;;
66669;SDS011;53568;52.164;4.472;2022-08-07T12:09:48;3.58;;;3.58;;
66669;SDS011;53568;52.164;4.472;2022-08-07T12:13:11;3.78;;;3.78;;
66669;SDS011;53568;52.164;4.472;2022-08-07T12:15:32;3.42;;;3.42;;
66669;SDS011;53568;52.164;4.472;2022-08-07T12:20:56;3.18;;;3.18;;
66669;SDS011;53568;52.164;4.472;2022-08-07T12:23:33;3.33;;;3.33;;
66669;SDS011;53568;52.164;4.472;2022-08-07T12:26:25;3.56;;;3.56;;
66669;SDS011;53568;52.164;4.472;2022-08-07T12:34:12;3.05;;;3.05;;
66669;SDS011;53568;52.164;4.472;2022-08-07T12:36:42;3.43;;;3.43;;
66669;SDS011;53568;52.164;4.472;2022-08-07T12:39:10;3.25;;;3.25;;
66669;SDS011;53568;52.164;4.472;2022-08-07T12:41:38;3.40;;;3.40;;
66669;SDS011;53568;52.164;4.472;2022-08-07T12:44:06;3.16;;;3.16;;
66669;SDS011;53568;52.164;4.472;2022-08-07T12:46:48;3.27;;;3.27;;
66669;SDS011;53568;52.164;4.472;2022-08-07T12:49:41;3.51;;;3.51;;
66669;SDS011;53568;52.164;4.472;2022-08-07T12:57:48;3.18;;;3.18;;
66669;SDS011;53568;52.164;4.472;2022-08-07T13:00:17;3.21;;;3.21;;
66669;SDS011;53568;52.164;4.472;2022-08-07T13:03:06;3.76;;;3.76;;
66669;SDS011;53568;52.164;4.472;2022-08-07T13:06:05;3.52;;;3.52;;
66669;SDS011;53568;52.164;4.472;2022-08-07T13:16:30;3.38;;;3.38;;
66669;SDS011;53568;52.164;4.472;2022-08-07T13:19:25;3.34;;;3.34;;
66669;SDS011;53568;52.164;4.472;2022-08-07T13:24:59;3.72;;;3.72;;
66669;SDS011;53568;52.164;4.472;2022-08-07T13:27:39;3.17;;;3.17;;
66669;SDS011;53568;52.164;4.472;2022-08-07T13:30:11;3.66;;;3.66;;
66669;SDS011;53568;52.164;4.472;2022-08-07T13:32:47;3.32;;;3.32;;
66669;SDS011;53568;52.164;4.472;2022-08-07T13:43:17;3.64;;;3.64;;
66669;SDS011;53568;52.164;4.472;2022-08-07T13:45:45;3.50;;;3.50;;
66669;SDS011;53568;52.164;4.472;2022-08-07T13:48:21;3.26;;;3.26;;
66669;SDS011;53568;52.164;4.472;2022-08-07T13:50:49;3.52;;;3.52;;
66669;SDS011;53568;52.164;4.472;2022-08-07T13:53:18;3.44;;;3.44;;
66669;SDS011;53568;52.164;4.472;2022-08-07T13:55:48;3.33;;;3.33;;
66669;SDS011;53568;52.164;4.472;2022-08-07T13:58:15;3.29;;;3.29;;
66669;SDS011;53568;52.164;4.472;2022-08-07T14:01:12;3.42;;;3.42;;
66669;SDS011;53568;52.164;4.472;2022-08-07T14:03:40;3.74;;;3.74;;
66669;SDS011;53568;52.164;4.472;2022-08-07T14:06:08;3.75;;;3.75;;
66669;SDS011;53568;52.164;4.472;2022-08-07T14:08:44;4.04;;;4.04;;
66669;SDS011;53568;52.164;4.472;2022-08-07T14:11:12;3.67;;;3.67;;
66669;SDS011;53568;52.164;4.472;2022-08-07T14:13:41;3.40;;;3.40;;
66669;SDS011;53568;52.164;4.472;2022-08-07T14:16:18;3.96;;;3.96;;
66669;SDS011;53568;52.164;4.472;2022-08-07T14:18:49;3.69;;;3.69;;
66669;SDS011;53568;52.164;4.472;2022-08-07T14:24:18;3.75;;;3.75;;
66669;SDS011;53568;52.164;4.472;2022-08-07T14:26:56;3.82;;;3.82;;
66669;SDS011;53568;52.164;4.472;2022-08-07T14:29:28;3.73;;;3.73;;
66669;SDS011;53568;52.164;4.472;2022-08-07T14:32:01;3.77;;;3.77;;
66669;SDS011;53568;52.164;4.472;2022-08-07T14:34:32;3.52;;;3.52;;
66669;SDS011;53568;52.164;4.472;2022-08-07T14:37:03;3.50;;;3.50;;
66669;SDS011;53568;52.164;4.472;2022-08-07T14:39:41;3.68;;;3.68;;
66669;SDS011;53568;52.164;4.472;2022-08-07T14:42:09;4.10;;;4.10;;
66669;SDS011;53568;52.164;4.472;2022-08-07T14:44:44;3.71;;;3.71;;
66669;SDS011;53568;52.164;4.472;2022-08-07T14:47:14;3.91;;;3.91;;
66669;SDS011;53568;52.164;4.472;2022-08-07T14:49:41;3.85;;;3.85;;
66669;SDS011;53568;52.164;4.472;2022-08-07T14:52:25;3.61;;;3.61;;
66669;SDS011;53568;52.164;4.472;2022-08-07T14:54:57;3.53;;;3.53;;
66669;SDS011;53568;52.164;4.472;2022-08-07T14:57:26;3.81;;;3.81;;
66669;SDS011;53568;52.164;4.472;2022-08-07T14:59:56;3.69;;;3.69;;
66669;SDS011;53568;52.164;4.472;2022-08-07T15:02:24;3.63;;;3.63;;
66669;SDS011;53568;52.164;4.472;2022-08-07T15:04:52;3.79;;;3.79;;
66669;SDS011;53568;52.164;4.472;2022-08-07T15:07:19;3.65;;;3.65;;
66669;SDS011;53568;52.164;4.472;2022-08-07T15:09:48;3.76;;;3.76;;
66669;SDS011;53568;52.164;4.472;2022-08-07T15:12:18;4.41;;;4.41;;
66669;SDS011;53568;52.164;4.472;2022-08-07T15:14:49;4.05;;;4.05;;
66669;SDS011;53568;52.164;4.472;2022-08-07T15:17:20;4.14;;;4.14;;
66669;SDS011;53568;52.164;4.472;2022-08-07T15:19:57;4.09;;;4.09;;
66669;SDS011;53568;52.164;4.472;2022-08-07T15:22:31;3.76;;;3.76;;
66669;SDS011;53568;52.164;4.472;2022-08-07T15:25:10;3.55;;;3.55;;
66669;SDS011;53568;52.164;4.472;2022-08-07T15:27:39;3.74;;;3.74;;
66669;SDS011;53568;52.164;4.472;2022-08-07T15:30:08;3.47;;;3.47;;
66669;SDS011;53568;52.164;4.472;2022-08-07T15:32:54;3.52;;;3.52;;
66669;SDS011;53568;52.164;4.472;2022-08-07T15:35:22;3.86;;;3.86;;
66669;SDS011;53568;52.164;4.472;2022-08-07T15:37:50;5.57;;;5.57;;
66669;SDS011;53568;52.164;4.472;2022-08-07T15:40:20;11.74;;;11.72;;
66669;SDS011;53568;52.164;4.472;2022-08-07T15:42:55;7.75;;;7.75;;
66669;SDS011;53568;52.164;4.472;2022-08-07T15:45:31;4.12;;;4.12;;
66669;SDS011;53568;52.164;4.472;2022-08-07T15:48:04;3.91;;;3.91;;
66669;SDS011;53568;52.164;4.472;2022-08-07T15:50:39;4.11;;;4.11;;
66669;SDS011;53568;52.164;4.472;2022-08-07T15:53:09;4.12;;;4.12;;
66669;SDS011;53568;52.164;4.472;2022-08-07T15:55:39;4.20;;;4.20;;
66669;SDS011;53568;52.164;4.472;2022-08-07T15:58:08;4.45;;;4.45;;
66669;SDS011;53568;52.164;4.472;2022-08-07T16:00:37;4.57;;;4.57;;
66669;SDS011;53568;52.164;4.472;2022-08-07T16:03:13;4.62;;;4.62;;
66669;SDS011;53568;52.164;4.472;2022-08-07T16:05:44;4.32;;;4.32;;
66669;SDS011;53568;52.164;4.472;2022-08-07T16:08:20;4.41;;;4.41;;
66669;SDS011;53568;52.164;4.472;2022-08-07T16:10:59;4.40;;;4.40;;
66669;SDS011;53568;52.164;4.472;2022-08-07T16:13:46;4.62;;;4.62;;
66669;SDS011;53568;52.164;4.472;2022-08-07T16:21:46;4.44;;;4.44;;
66669;SDS011;53568;52.164;4.472;2022-08-07T16:24:31;4.68;;;4.68;;
66669;SDS011;53568;52.164;4.472;2022-08-07T16:27:15;4.26;;;4.26;;
66669;SDS011;53568;52.164;4.472;2022-08-07T16:32:41;4.45;;;4.45;;
66669;SDS011;53568;52.164;4.472;2022-08-07T16:38:22;4.33;;;4.33;;
66669;SDS011;53568;52.164;4.472;2022-08-07T16:49:49;4.49;;;4.49;;
66669;SDS011;53568;52.164;4.472;2022-08-07T17:00:30;4.48;;;4.48;;
66669;SDS011;53568;52.164;4.472;2022-08-07T17:09:02;4.59;;;4.59;;
66669;SDS011;53568;52.164;4.472;2022-08-07T17:17:27;4.68;;;4.68;;
66669;SDS011;53568;52.164;4.472;2022-08-07T17:20:02;4.80;;;4.80;;
66669;SDS011;53568;52.164;4.472;2022-08-07T17:22:44;4.60;;;4.60;;
66669;SDS011;53568;52.164;4.472;2022-08-07T17:25:22;4.18;;;4.18;;
66669;SDS011;53568;52.164;4.472;2022-08-07T17:28:13;4.23;;;4.23;;
66669;SDS011;53568;52.164;4.472;2022-08-07T17:31:17;4.02;;;4.02;;
66669;SDS011;53568;52.164;4.472;2022-08-07T17:33:57;3.89;;;3.89;;
66669;SDS011;53568;52.164;4.472;2022-08-07T17:36:34;3.89;;;3.89;;
66669;SDS011;53568;52.164;4.472;2022-08-07T17:39:11;3.69;;;3.69;;
66669;SDS011;53568;52.164;4.472;2022-08-07T17:41:50;3.62;;;3.62;;
66669;SDS011;53568;52.164;4.472;2022-08-07T17:44:57;3.86;;;3.86;;
66669;SDS011;53568;52.164;4.472;2022-08-07T17:50:17;4.01;;;4.01;;
66669;SDS011;53568;52.164;4.472;2022-08-07T17:52:53;4.03;;;4.03;;
66669;SDS011;53568;52.164;4.472;2022-08-07T17:55:39;3.88;;;3.88;;
66669;SDS011;53568;52.164;4.472;2022-08-07T17:58:17;3.67;;;3.67;;
66669;SDS011;53568;52.164;4.472;2022-08-07T18:00:53;3.99;;;3.99;;
66669;SDS011;53568;52.164;4.472;2022-08-07T18:03:26;3.65;;;3.65;;
66669;SDS011;53568;52.164;4.472;2022-08-07T18:06:09;4.08;;;4.08;;
66669;SDS011;53568;52.164;4.472;2022-08-07T18:11:09;3.93;;;3.93;;
66669;SDS011;53568;52.164;4.472;2022-08-07T18:13:48;4.01;;;4.01;;
66669;SDS011;53568;52.164;4.472;2022-08-07T18:19:20;4.27;;;4.27;;
66669;SDS011;53568;52.164;4.472;2022-08-07T18:21:57;4.66;;;4.66;;
66669;SDS011;53568;52.164;4.472;2022-08-07T18:24:36;4.49;;;4.49;;
66669;SDS011;53568;52.164;4.472;2022-08-07T18:27:24;4.74;;;4.74;;
66669;SDS011;53568;52.164;4.472;2022-08-07T18:30:01;4.74;;;4.74;;